Time;durP1;ratioP1;P1;durP2;ratioP2;P2;SDS_P1;SDS_P2;PMS_P1;PMS_P2;Temp;Humidity;BMP_temperature;BMP_pressure;BME280_temperature;BME280_humidity;BME280_pressure;Samples;Min_cycle;Max_cycle;Signal;HPM_P1;HPM_P2
2022/07/26 00:01:29;;;;;;;10.57;2.30;;;17.50;99.90;;;;;;5053757;28;20041;-25
2022/07/26 00:03:54;;;;;;;15.15;2.90;;;17.40;99.90;;;;;;5055630;28;20045;-25
2022/07/26 00:06:20;;;;;;;15.25;3.38;;;17.40;99.90;;;;;;5055023;28;20067;-25
2022/07/26 00:08:47;;;;;;;10.90;2.45;;;17.40;99.90;;;;;;5038402;28;20063;-24
2022/07/26 00:11:13;;;;;;;11.18;2.97;;;17.40;99.90;;;;;;5055974;28;20483;-25
2022/07/26 00:13:38;;;;;;;15.30;2.60;;;17.40;99.90;;;;;;5038175;28;20102;-26
2022/07/26 00:16:04;;;;;;;8.65;2.08;;;17.40;99.90;;;;;;5055443;28;20099;-25
2022/07/26 00:18:30;;;;;;;9.05;2.38;;;17.40;99.90;;;;;;5054510;28;20127;-25
2022/07/26 00:20:56;;;;;;;11.52;2.58;;;17.40;99.90;;;;;;5053202;28;20129;-25
2022/07/26 00:23:22;;;;;;;8.55;2.42;;;17.40;99.90;;;;;;5054629;28;20518;-25
2022/07/26 00:25:47;;;;;;;11.85;3.10;;;17.40;99.90;;;;;;5054070;28;20060;-25
2022/07/26 00:28:13;;;;;;;8.43;2.10;;;17.30;99.90;;;;;;5054839;28;20083;-25
2022/07/26 00:30:39;;;;;;;8.85;3.00;;;17.20;99.90;;;;;;5055289;28;20040;-25
2022/07/26 00:33:05;;;;;;;8.60;3.40;;;17.20;99.90;;;;;;5053589;28;20154;-25
2022/07/26 00:35:32;;;;;;;8.05;2.60;;;17.10;99.90;;;;;;5053884;28;20048;-25
2022/07/26 00:37:58;;;;;;;7.63;2.58;;;17.10;99.90;;;;;;5053365;28;20049;-25
2022/07/26 00:40:24;;;;;;;8.15;2.40;;;17.10;99.90;;;;;;5054595;28;20063;-25
2022/07/26 00:42:49;;;;;;;6.72;2.55;;;17.10;99.90;;;;;;5053178;28;20571;-25
2022/07/26 00:45:16;;;;;;;5.88;2.55;;;17.10;99.90;;;;;;5037438;28;20080;-25
2022/07/26 00:47:42;;;;;;;7.50;2.55;;;17.10;99.90;;;;;;5055015;28;20131;-25
2022/07/26 00:50:11;;;;;;;7.63;2.92;;;17.10;99.90;;;;;;5053335;28;20145;-25
2022/07/26 00:52:37;;;;;;;10.50;3.30;;;17.10;99.90;;;;;;5056756;28;20098;-25
2022/07/26 00:55:06;;;;;;;6.45;2.63;;;17.10;99.90;;;;;;5053653;28;20049;-25
2022/07/26 00:57:34;;;;;;;9.63;2.50;;;17.10;99.90;;;;;;5053734;28;20056;-25
2022/07/26 01:00:03;;;;;;;7.40;3.13;;;17.10;99.90;;;;;;5053765;28;20080;-25
2022/07/26 01:02:28;;;;;;;7.18;2.53;;;17.10;99.90;;;;;;5055350;28;20110;-25
2022/07/26 01:04:54;;;;;;;7.93;2.72;;;17.10;99.90;;;;;;5054600;28;20475;-25
2022/07/26 01:07:22;;;;;;;7.47;2.85;;;17.10;99.90;;;;;;5053724;28;20132;-25
2022/07/26 01:09:48;;;;;;;11.70;3.08;;;17.10;99.90;;;;;;5055627;28;20471;-26
2022/07/26 01:12:13;;;;;;;9.30;2.80;;;17.10;99.90;;;;;;5053831;28;20045;-25
2022/07/26 01:14:43;;;;;;;8.20;3.13;;;17.10;99.90;;;;;;5053231;28;20045;-25
2022/07/26 01:17:09;;;;;;;6.65;2.10;;;17.10;99.90;;;;;;5054104;28;20051;-25
2022/07/26 01:19:35;;;;;;;7.05;2.78;;;17.10;99.90;;;;;;5053345;28;20053;-25
2022/07/26 01:22:01;;;;;;;6.05;2.30;;;17.10;99.90;;;;;;5053085;28;20183;-25
2022/07/26 01:24:26;;;;;;;5.65;2.50;;;17.00;99.90;;;;;;5053023;28;20047;-26
2022/07/26 01:26:54;;;;;;;9.10;2.53;;;17.00;1.00;;;;;;5053177;28;20044;-25
2022/07/26 01:29:20;;;;;;;6.05;2.45;;;16.90;1.00;;;;;;5051569;28;20436;-26
2022/07/26 01:31:46;;;;;;;6.07;3.03;;;16.90;1.00;;;;;;5053100;28;20049;-25
2022/07/26 01:34:12;;;;;;;8.52;2.65;;;16.80;1.00;;;;;;5035846;28;20045;-24
2022/07/26 01:36:38;;;;;;;5.93;2.90;;;16.80;1.00;;;;;;5051841;28;20047;-25
2022/07/26 01:39:04;;;;;;;8.13;3.30;;;16.70;1.00;;;;;;5051628;28;20032;-25
2022/07/26 01:41:30;;;;;;;8.50;2.97;;;16.70;1.00;;;;;;5053021;28;20052;-25
2022/07/26 01:43:56;;;;;;;12.43;4.00;;;16.70;1.00;;;;;;5053945;28;20044;-25
2022/07/26 01:46:22;;;;;;;9.40;3.35;;;16.60;1.00;;;;;;5052148;28;20041;-25
2022/07/26 01:48:47;;;;;;;7.32;3.47;;;16.50;1.00;;;;;;5053375;28;20430;-25
2022/07/26 01:51:13;;;;;;;7.28;3.33;;;16.50;1.00;;;;;;5051104;28;20044;-25
2022/07/26 01:53:39;;;;;;;6.80;3.00;;;16.40;20.00;;;;;;5053369;28;20045;-25
2022/07/26 01:56:05;;;;;;;6.03;3.05;;;16.50;86.70;;;;;;5051674;28;20044;-25
2022/07/26 01:58:31;;;;;;;10.25;3.72;;;16.50;99.90;;;;;;5054443;28;20084;-25
2022/07/26 02:00:56;;;;;;;4.72;3.08;;;16.50;99.90;;;;;;5052524;28;20098;-25
2022/07/26 02:03:22;;;;;;;7.32;3.20;;;16.70;99.90;;;;;;5053257;28;20497;-26
2022/07/26 02:05:48;;;;;;;11.48;4.00;;;16.70;99.90;;;;;;5051220;28;20514;-25
2022/07/26 02:08:16;;;;;;;9.90;3.92;;;16.80;99.90;;;;;;5052402;28;20410;-25
2022/07/26 02:11:00;;;;;;;15.75;4.13;;;16.90;99.90;;;;;;5037953;28;20094;-23
2022/07/26 02:13:36;;;;;;;9.50;3.05;;;16.90;99.90;;;;;;5033223;28;20103;-21
2022/07/26 02:16:04;;;;;;;5.63;1.55;;;16.80;1.00;;;;;;5052134;28;20106;-21
2022/07/26 02:18:30;;;;;;;6.38;1.45;;;16.50;1.00;;;;;;5054287;28;20140;-22
2022/07/26 02:20:57;;;;;;;7.55;1.90;;;16.20;99.90;;;;;;5051102;28;20546;-23
2022/07/26 02:23:24;;;;;;;4.18;2.00;;;16.00;1.00;;;;;;5052810;28;20090;-22
2022/07/26 02:25:50;;;;;;;5.63;2.72;;;15.80;1.00;;;;;;5053315;28;20045;-22
2022/07/26 02:28:16;;;;;;;10.48;2.65;;;15.70;1.00;;;;;;5034275;28;20482;-22
2022/07/26 02:30:44;;;;;;;8.30;2.97;;;15.70;1.00;;;;;;5053435;28;20041;-22
2022/07/26 02:33:10;;;;;;;8.63;3.47;;;15.80;1.00;;;;;;5055698;28;20049;-22
2022/07/26 02:35:36;;;;;;;12.45;3.95;;;15.80;45.80;;;;;;5057115;28;20426;-22
2022/07/26 02:38:04;;;;;;;13.30;4.10;;;15.70;99.90;;;;;;5057433;28;20049;-22
2022/07/26 02:40:31;;;;;;;15.18;3.70;;;15.70;99.90;;;;;;5057234;28;20099;-22
2022/07/26 02:42:57;;;;;;;12.18;3.70;;;15.70;99.90;;;;;;5055812;28;20049;-23
2022/07/26 02:45:23;;;;;;;16.45;4.65;;;15.70;99.90;;;;;;5056690;28;20063;-23
2022/07/26 02:47:52;;;;;;;15.00;4.68;;;15.70;99.90;;;;;;5057242;28;20429;-23
2022/07/26 02:50:19;;;;;;;14.02;3.35;;;15.70;99.90;;;;;;5055160;28;20056;-23
2022/07/26 02:52:46;;;;;;;13.15;4.38;;;15.80;99.90;;;;;;5056532;28;20052;-23
2022/07/26 02:55:16;;;;;;;13.93;3.10;;;15.70;99.90;;;;;;5057045;28;20053;-23
2022/07/26 02:57:42;;;;;;;14.75;3.33;;;15.80;99.90;;;;;;5057369;28;20045;-23
2022/07/26 03:00:10;;;;;;;12.07;2.30;;;15.90;99.90;;;;;;5055029;28;20471;-24
2022/07/26 03:02:36;;;;;;;14.70;2.28;;;15.90;99.90;;;;;;5056111;28;20048;-24
2022/07/26 03:05:03;;;;;;;10.15;2.20;;;15.80;99.90;;;;;;5056872;28;20102;-23
2022/07/26 03:07:28;;;;;;;8.38;2.10;;;15.70;99.90;;;;;;5057517;28;20491;-24
2022/07/26 03:09:54;;;;;;;6.38;1.58;;;15.70;99.90;;;;;;5056810;28;20049;-24
2022/07/26 03:12:20;;;;;;;10.95;2.38;;;15.80;99.90;;;;;;5056034;28;20098;-24
2022/07/26 03:14:45;;;;;;;13.43;1.92;;;15.70;99.90;;;;;;5054121;28;20045;-25
2022/07/26 03:17:11;;;;;;;10.07;1.38;;;15.70;99.90;;;;;;5054965;28;20055;-24
2022/07/26 03:19:37;;;;;;;15.55;2.30;;;15.80;99.90;;;;;;5056488;28;20041;-24
2022/07/26 03:22:03;;;;;;;10.32;1.95;;;15.80;99.90;;;;;;5056937;28;20048;-24
2022/07/26 03:24:28;;;;;;;14.95;2.35;;;15.80;99.90;;;;;;5055067;28;20068;-24
2022/07/26 03:26:54;;;;;;;9.95;1.55;;;15.80;99.90;;;;;;5055668;28;20045;-24
2022/07/26 03:29:20;;;;;;;10.30;1.73;;;15.80;99.90;;;;;;5055018;28;20120;-25
2022/07/26 03:31:45;;;;;;;6.18;1.08;;;15.80;73.70;;;;;;5054830;28;20098;-24
2022/07/26 03:34:11;;;;;;;5.95;1.02;;;15.80;1.00;;;;;;5056356;28;20048;-24
2022/07/26 03:36:37;;;;;;;10.68;1.00;;;15.80;1.00;;;;;;5056225;28;20048;-24
2022/07/26 03:39:02;;;;;;;7.18;1.33;;;15.80;1.00;;;;;;5038284;28;20044;-24
2022/07/26 03:41:30;;;;;;;9.43;1.70;;;15.70;1.00;;;;;;5055549;28;20041;-24
2022/07/26 03:43:56;;;;;;;6.43;1.08;;;15.70;1.00;;;;;;5054575;28;20095;-24
2022/07/26 03:46:22;;;;;;;5.50;1.00;;;15.70;1.00;;;;;;5055245;28;20070;-25
2022/07/26 03:48:48;;;;;;;7.32;1.50;;;15.70;99.90;;;;;;5053068;28;20461;-25
2022/07/26 03:51:14;;;;;;;7.60;1.00;;;15.60;99.90;;;;;;5055727;28;20045;-25
2022/07/26 03:53:39;;;;;;;9.10;1.50;;;15.70;99.90;;;;;;5056601;28;20066;-25
2022/07/26 03:58:49;;;;;;;10.02;1.17;;;15.60;99.90;;;;;;5054200;28;20095;-25
2022/07/26 04:01:15;;;;;;;12.00;1.48;;;15.60;99.90;;;;;;5054847;28;20076;-25
2022/07/26 04:03:40;;;;;;;8.45;0.80;;;15.60;99.90;;;;;;5056285;28;20044;-25
2022/07/26 04:06:06;;;;;;;7.93;1.00;;;15.70;99.90;;;;;;5054782;28;20068;-25
2022/07/26 04:08:32;;;;;;;5.68;0.82;;;15.70;99.90;;;;;;5056261;28;20049;-25
2022/07/26 04:10:58;;;;;;;6.55;0.85;;;15.70;99.90;;;;;;5057718;28;20494;-25
2022/07/26 04:13:23;;;;;;;8.65;1.30;;;15.70;99.90;;;;;;5054883;28;20040;-25
2022/07/26 04:15:49;;;;;;;8.40;0.82;;;15.70;59.70;;;;;;5054757;28;20072;-25
2022/07/26 04:18:15;;;;;;;8.90;1.48;;;15.70;18.20;;;;;;5055496;28;20045;-25
2022/07/26 04:20:41;;;;;;;9.90;1.65;;;15.60;1.00;;;;;;5054657;28;20067;-25
2022/07/26 04:23:08;;;;;;;9.57;0.75;;;15.50;1.00;;;;;;5053883;28;20087;-25
2022/07/26 04:25:33;;;;;;;8.07;0.73;;;15.50;1.00;;;;;;5053822;28;20384;-25
2022/07/26 04:28:00;;;;;;;5.43;0.70;;;15.50;1.00;;;;;;5053684;28;20103;-25
2022/07/26 04:30:26;;;;;;;8.18;1.00;;;15.40;1.00;;;;;;5052572;28;20052;-25
2022/07/26 04:32:52;;;;;;;8.88;0.93;;;15.50;1.00;;;;;;5055197;28;20052;-25
2022/07/26 04:35:18;;;;;;;10.75;1.27;;;15.50;1.00;;;;;;5055190;28;20045;-24
2022/07/26 04:37:45;;;;;;;8.20;1.20;;;15.50;14.90;;;;;;5054197;28;20041;-25
2022/07/26 04:40:17;;;;;;;9.43;1.15;;;15.50;83.60;;;;;;5053562;28;20121;-25
2022/07/26 04:42:42;;;;;;;8.45;1.10;;;15.60;95.10;;;;;;5055043;28;20056;-25
2022/07/26 04:45:09;;;;;;;5.90;1.40;;;15.60;95.40;;;;;;5054416;28;20041;-25
2022/07/26 04:47:35;;;;;;;12.57;0.90;;;15.60;99.90;;;;;;5053681;28;20422;-25
2022/07/26 04:50:01;;;;;;;7.88;0.93;;;15.60;99.90;;;;;;5054127;28;20037;-25
2022/07/26 04:52:27;;;;;;;5.03;0.80;;;15.60;99.90;;;;;;5036759;28;20049;-26
2022/07/26 04:54:53;;;;;;;5.13;0.80;;;15.70;96.90;;;;;;5053185;28;20040;-25
2022/07/26 04:57:19;;;;;;;5.20;1.20;;;15.70;89.90;;;;;;5053646;28;20107;-25
2022/07/26 04:59:44;;;;;;;7.82;0.90;;;15.70;1.00;;;;;;5055861;28;20037;-25
2022/07/26 05:02:10;;;;;;;5.05;1.10;;;15.70;1.00;;;;;;5054660;28;20048;-25
2022/07/26 05:04:36;;;;;;;7.60;1.50;;;15.70;1.00;;;;;;5053857;28;20052;-25
2022/07/26 05:07:02;;;;;;;7.85;1.17;;;15.60;1.00;;;;;;5053435;28;20052;-24
2022/07/26 05:09:30;;;;;;;6.47;0.60;;;15.50;1.00;;;;;;5054510;28;20091;-23
2022/07/26 05:11:56;;;;;;;7.72;1.30;;;15.20;1.00;;;;;;5054383;28;20380;-23
2022/07/26 05:14:21;;;;;;;7.93;1.15;;;15.00;1.00;;;;;;5057296;28;20040;-24
2022/07/26 05:16:47;;;;;;;7.65;1.05;;;15.10;1.00;;;;;;5052643;28;20546;-24
2022/07/26 05:19:13;;;;;;;6.25;1.15;;;15.00;34.90;;;;;;5053809;28;20128;-23
2022/07/26 05:21:39;;;;;;;6.45;1.02;;;15.00;54.60;;;;;;5053226;28;20372;-24
2022/07/26 05:24:05;;;;;;;11.35;1.30;;;15.00;80.90;;;;;;5052751;28;20052;-24
2022/07/26 05:26:31;;;;;;;6.13;1.10;;;15.00;73.60;;;;;;5054177;28;20041;-24
2022/07/26 05:28:57;;;;;;;7.43;0.77;;;15.10;38.00;;;;;;5052687;28;20071;-24
2022/07/26 05:31:24;;;;;;;5.13;0.88;;;15.10;22.00;;;;;;5051421;28;20498;-24
2022/07/26 05:33:49;;;;;;;6.20;0.68;;;15.10;1.00;;;;;;5053344;28;20076;-24
2022/07/26 05:36:16;;;;;;;4.20;0.70;;;15.10;1.00;;;;;;5054085;28;20448;-24
2022/07/26 05:38:42;;;;;;;5.43;0.70;;;15.20;1.00;;;;;;5054462;28;20048;-23
2022/07/26 05:41:07;;;;;;;9.18;1.20;;;15.20;1.00;;;;;;5053188;28;20113;-24
2022/07/26 05:43:33;;;;;;;9.88;0.80;;;15.30;1.00;;;;;;5053946;28;20044;-24
2022/07/26 05:45:59;;;;;;;5.22;0.73;;;15.30;1.00;;;;;;5052884;28;20090;-24
2022/07/26 05:48:25;;;;;;;6.75;0.80;;;15.40;1.00;;;;;;5053478;28;20090;-24
2022/07/26 05:50:51;;;;;;;5.35;0.85;;;15.40;1.00;;;;;;5052995;28;20126;-24
2022/07/26 05:53:16;;;;;;;8.02;0.90;;;15.50;1.00;;;;;;5053053;28;20049;-24
2022/07/26 05:55:42;;;;;;;6.53;0.65;;;15.60;99.90;;;;;;5052630;28;20504;-26
2022/07/26 05:58:08;;;;;;;7.32;0.95;;;15.60;99.90;;;;;;5051908;28;20118;-25
2022/07/26 06:00:34;;;;;;;6.40;0.88;;;15.80;99.90;;;;;;5033699;28;20048;-24
2022/07/26 06:03:20;;;;;;;6.30;0.90;;;15.90;99.90;;;;;;5052153;28;20068;-24
2022/07/26 06:05:46;;;;;;;9.35;0.80;;;16.00;99.90;;;;;;5049580;28;20098;-24
2022/07/26 06:08:11;;;;;;;5.95;0.80;;;16.10;99.90;;;;;;5053451;28;20057;-24
2022/07/26 06:10:37;;;;;;;9.07;0.95;;;16.10;99.90;;;;;;5053884;28;20044;-24
2022/07/26 06:13:03;;;;;;;5.65;1.17;;;16.10;95.00;;;;;;5052946;28;20049;-24
2022/07/26 06:15:28;;;;;;;6.20;0.88;;;16.10;1.00;;;;;;5052650;28;20475;-24
2022/07/26 06:17:54;;;;;;;9.35;1.88;;;15.90;1.00;;;;;;5053476;28;20049;-24
2022/07/26 06:20:20;;;;;;;6.03;1.15;;;15.90;1.00;;;;;;5048857;28;20601;-25
2022/07/26 06:22:46;;;;;;;6.60;1.08;;;15.80;1.00;;;;;;5033563;28;20052;-24
2022/07/26 06:25:11;;;;;;;7.05;0.93;;;15.90;1.00;;;;;;5047888;28;20037;-24
2022/07/26 06:27:37;;;;;;;5.72;0.77;;;15.90;1.00;;;;;;5053114;28;20049;-25
2022/07/26 06:30:03;;;;;;;5.32;0.90;;;16.10;1.00;;;;;;5053315;28;20037;-25
2022/07/26 06:32:29;;;;;;;5.95;0.88;;;16.40;1.00;;;;;;5052622;28;20060;-24
2022/07/26 06:34:55;;;;;;;6.95;1.08;;;16.60;99.90;;;;;;5052984;28;20045;-25
2022/07/26 06:37:21;;;;;;;5.40;0.70;;;16.80;99.90;;;;;;5035127;28;20380;-24
2022/07/26 06:39:46;;;;;;;5.65;0.73;;;16.80;99.90;;;;;;5034984;28;20068;-24
2022/07/26 06:42:12;;;;;;;4.28;0.68;;;16.80;99.90;;;;;;5053289;28;20049;-24
2022/07/26 06:44:38;;;;;;;5.88;0.65;;;16.60;1.00;;;;;;5052593;28;20052;-24
2022/07/26 06:47:04;;;;;;;5.10;1.13;;;16.50;1.00;;;;;;5052588;28;20589;-24
2022/07/26 06:49:29;;;;;;;5.60;0.85;;;16.30;99.90;;;;;;5052557;28;20372;-24
2022/07/26 06:51:56;;;;;;;3.67;0.70;;;16.20;99.90;;;;;;5034569;28;20045;-25
2022/07/26 06:54:23;;;;;;;11.68;1.73;;;16.10;99.90;;;;;;5053210;28;20148;-24
2022/07/26 06:56:48;;;;;;;5.38;0.75;;;16.10;99.90;;;;;;5042643;28;20051;-24
2022/07/26 06:59:14;;;;;;;4.88;0.60;;;16.30;99.90;;;;;;5033288;28;20052;-28
2022/07/26 07:01:40;;;;;;;7.95;0.95;;;16.50;99.90;;;;;;5052581;28;20545;-25
2022/07/26 07:04:05;;;;;;;7.63;0.95;;;16.60;99.90;;;;;;5052287;28;20049;-25
2022/07/26 07:06:31;;;;;;;7.20;0.90;;;16.50;99.90;;;;;;5052232;28;20136;-25
2022/07/26 07:08:57;;;;;;;7.03;0.88;;;16.30;1.00;;;;;;5050156;28;20112;-25
2022/07/26 07:11:23;;;;;;;5.22;1.40;;;16.40;1.00;;;;;;5042816;28;20048;-25
2022/07/26 07:13:49;;;;;;;8.77;1.27;;;16.60;6.70;;;;;;5058301;28;20479;-25
2022/07/26 07:16:14;;;;;;;10.80;1.30;;;16.90;59.90;;;;;;5061842;28;20037;-27
2022/07/26 07:18:40;;;;;;;5.95;1.05;;;17.20;1.00;;;;;;5039099;28;20053;-25
2022/07/26 07:21:06;;;;;;;7.10;1.35;;;17.40;1.00;;;;;;5043270;28;20403;-25
2022/07/26 07:23:32;;;;;;;10.13;1.20;;;17.70;1.00;;;;;;5060647;28;20036;-25
2022/07/26 07:25:58;;;;;;;12.00;1.70;;;17.90;99.90;;;;;;5055296;28;20052;-25
2022/07/26 07:28:24;;;;;;;5.47;0.80;;;18.10;99.90;;;;;;5056451;28;20151;-25
2022/07/26 07:30:51;;;;;;;9.27;1.55;;;18.00;99.90;;;;;;5055394;28;20068;-25
2022/07/26 07:33:17;;;;;;;7.55;1.10;;;17.90;99.90;;;;;;5055296;28;20049;-25
2022/07/26 07:35:43;;;;;;;11.00;1.25;;;17.70;99.90;;;;;;5055038;28;20048;-25
2022/07/26 07:38:08;;;;;;;8.30;1.27;;;17.20;99.90;;;;;;5056144;28;20099;-25
2022/07/26 07:40:35;;;;;;;5.90;1.20;;;16.90;99.90;;;;;;5054914;28;20041;-25
2022/07/26 07:43:01;;;;;;;10.20;1.30;;;16.60;99.90;;;;;;5055331;28;20073;-25
2022/07/26 07:45:26;;;;;;;8.90;1.20;;;16.40;99.90;;;;;;5056057;28;20495;-25
2022/07/26 07:47:52;;;;;;;6.90;1.02;;;16.40;99.90;;;;;;5055419;28;20041;-25
2022/07/26 07:50:18;;;;;;;5.88;1.10;;;16.40;99.90;;;;;;5053754;28;20037;-25
2022/07/26 07:52:44;;;;;;;8.02;1.40;;;16.40;99.90;;;;;;5054701;28;20056;-25
2022/07/26 07:55:09;;;;;;;7.88;1.13;;;16.50;99.90;;;;;;5056229;28;20053;-25
2022/07/26 07:57:35;;;;;;;5.50;1.20;;;16.80;99.90;;;;;;5055870;28;20045;-25
2022/07/26 08:00:03;;;;;;;9.80;2.30;;;17.10;99.90;;;;;;5057829;28;20120;-25
2022/07/26 08:02:29;;;;;;;6.55;1.25;;;17.50;99.90;;;;;;5056321;28;20045;-25
2022/07/26 08:04:54;;;;;;;13.30;1.80;;;18.00;1.00;;;;;;5055046;28;20052;-25
2022/07/26 08:07:20;;;;;;;6.25;1.30;;;18.20;99.90;;;;;;5058259;28;20498;-25
2022/07/26 08:09:46;;;;;;;6.75;1.05;;;18.40;99.90;;;;;;5062043;28;20056;-25
2022/07/26 08:12:12;;;;;;;10.60;1.48;;;18.40;99.90;;;;;;5054315;28;20131;-27
2022/07/26 08:14:37;;;;;;;33.10;5.05;;;18.40;99.90;;;;;;5055542;28;20127;-25
2022/07/26 08:17:03;;;;;;;10.82;1.70;;;18.40;99.90;;;;;;5051181;28;20380;-26
2022/07/26 08:19:29;;;;;;;13.23;2.17;;;18.40;99.90;;;;;;5056851;28;20073;-26
2022/07/26 08:21:55;;;;;;;26.75;4.22;;;18.40;99.90;;;;;;5054870;28;20538;-26
2022/07/26 08:24:20;;;;;;;8.23;1.15;;;18.30;99.90;;;;;;5053599;28;20140;-25
2022/07/26 08:26:46;;;;;;;31.35;4.18;;;18.10;99.90;;;;;;5054334;28;20051;-26
2022/07/26 08:29:12;;;;;;;35.05;3.35;;;18.10;1.00;;;;;;5037629;28;20124;-25
2022/07/26 08:31:38;;;;;;;12.63;2.47;;;18.10;1.00;;;;;;5054040;28;20052;-25
2022/07/26 08:34:04;;;;;;;10.10;1.45;;;18.20;1.00;;;;;;5055209;28;20558;-25
2022/07/26 08:36:30;;;;;;;10.18;1.50;;;18.50;1.00;;;;;;5054127;28;20137;-26
2022/07/26 08:38:55;;;;;;;12.13;1.75;;;18.60;99.90;;;;;;5054813;28;20128;-26
2022/07/26 08:41:22;;;;;;;10.07;1.90;;;18.70;99.90;;;;;;5055835;28;20128;-26
2022/07/26 08:43:47;;;;;;;9.32;2.10;;;18.50;99.90;;;;;;5020800;28;20053;-25
2022/07/26 08:46:13;;;;;;;12.48;1.90;;;18.10;99.90;;;;;;5055239;28;20051;-25
2022/07/26 08:48:39;;;;;;;11.05;1.83;;;17.80;99.90;;;;;;5052800;28;20475;-25
2022/07/26 08:51:09;;;;;;;10.30;1.98;;;17.70;99.90;;;;;;5053291;28;20124;-25
2022/07/26 08:53:38;;;;;;;13.75;2.88;;;17.70;1.00;;;;;;5053507;28;20053;-26
2022/07/26 08:56:04;;;;;;;13.10;2.88;;;17.70;1.00;;;;;;5055041;28;20403;-26
2022/07/26 08:58:36;;;;;;;13.02;2.75;;;17.70;1.00;;;;;;5054676;28;20041;-26
2022/07/26 09:01:11;;;;;;;16.65;2.35;;;17.80;99.90;;;;;;5053781;28;20080;-25
2022/07/26 09:03:38;;;;;;;12.63;2.42;;;17.80;99.90;;;;;;5054638;28;20474;-25
2022/07/26 09:06:17;;;;;;;16.23;3.03;;;17.80;99.90;;;;;;5055198;28;20045;-25
2022/07/26 09:08:45;;;;;;;15.70;2.28;;;17.70;99.90;;;;;;5053429;28;20059;-25
2022/07/26 09:11:22;;;;;;;11.80;2.22;;;17.70;99.90;;;;;;5053846;28;20506;-26
2022/07/26 09:13:54;;;;;;;12.55;2.40;;;17.90;99.90;;;;;;5054400;28;20084;-25
2022/07/26 09:16:19;;;;;;;12.43;2.38;;;18.20;99.90;;;;;;5054990;28;20088;-26
2022/07/26 09:18:45;;;;;;;16.80;3.00;;;18.30;99.90;;;;;;5054262;28;20084;-26
2022/07/26 09:21:26;;;;;;;13.70;3.00;;;18.40;99.90;;;;;;5053357;28;20483;-26
2022/07/26 09:23:52;;;;;;;11.75;2.38;;;18.40;21.50;;;;;;5054136;28;20084;-25
2022/07/26 09:26:21;;;;;;;11.85;2.65;;;18.20;99.90;;;;;;5054128;28;20130;-26
2022/07/26 09:29:03;;;;;;;11.98;2.15;;;17.80;86.50;;;;;;5054121;28;20482;-26
2022/07/26 09:31:29;;;;;;;10.57;2.00;;;17.50;66.90;;;;;;5052995;28;20088;-26
2022/07/26 09:33:55;;;;;;;8.52;1.90;;;17.40;99.90;;;;;;5054265;28;20446;-25
2022/07/26 09:36:21;;;;;;;13.40;2.50;;;17.50;99.90;;;;;;5054879;28;20129;-26
2022/07/26 09:38:48;;;;;;;9.65;1.85;;;17.70;99.90;;;;;;5053891;28;20128;-25
2022/07/26 09:41:22;;;;;;;15.73;2.38;;;18.00;1.00;;;;;;5053446;28;20501;-26
2022/07/26 09:43:49;;;;;;;9.85;1.85;;;17.90;1.00;;;;;;5052919;28;20064;-26
2022/07/26 09:46:15;;;;;;;12.50;1.67;;;17.80;99.90;;;;;;5053805;28;20513;-26
2022/07/26 09:48:44;;;;;;;9.38;2.05;;;18.00;1.00;;;;;;5053815;28;20045;-26
2022/07/26 09:51:10;;;;;;;14.18;2.00;;;18.10;1.00;;;;;;5053805;28;20556;-25
2022/07/26 09:53:48;;;;;;;10.48;1.75;;;18.40;1.00;;;;;;5051736;28;20132;-26
2022/07/26 09:56:14;;;;;;;10.15;1.75;;;18.50;99.90;;;;;;5054312;28;20052;-26
2022/07/26 09:58:39;;;;;;;11.48;1.48;;;18.50;99.90;;;;;;5052713;28;20057;-26
2022/07/26 10:01:06;;;;;;;9.82;1.80;;;18.10;1.00;;;;;;5053619;28;20037;-25
2022/07/26 10:03:33;;;;;;;15.13;1.85;;;18.00;99.90;;;;;;5051404;28;20037;-26
2022/07/26 10:06:03;;;;;;;15.50;1.98;;;18.20;99.90;;;;;;5053602;28;20395;-26
2022/07/26 10:08:29;;;;;;;8.35;1.38;;;18.30;54.00;;;;;;5053828;28;20053;-26
2022/07/26 10:11:03;;;;;;;6.72;1.40;;;18.30;1.00;;;;;;5053503;28;20037;-26
2022/07/26 10:13:30;;;;;;;8.70;1.35;;;18.30;1.00;;;;;;5053101;28;20052;-26
2022/07/26 10:15:55;;;;;;;9.95;1.92;;;18.30;80.80;;;;;;5053375;28;20052;-26
2022/07/26 10:18:36;;;;;;;6.63;1.33;;;18.50;99.90;;;;;;5053466;28;20147;-26
2022/07/26 10:21:18;;;;;;;8.68;1.73;;;18.50;23.90;;;;;;5053619;28;20128;-26
2022/07/26 10:23:45;;;;;;;9.13;1.52;;;18.60;1.00;;;;;;5053422;28;20040;-26
2022/07/26 10:26:31;;;;;;;9.65;2.22;;;18.80;1.00;;;;;;5034904;28;20453;-26
2022/07/26 10:29:18;;;;;;;9.88;1.67;;;19.00;99.90;;;;;;5053626;28;20131;-26
2022/07/26 10:31:47;;;;;;;9.45;1.20;;;19.20;99.90;;;;;;5053654;28;20041;-26
2022/07/26 10:34:33;;;;;;;9.38;1.40;;;19.50;99.90;;;;;;5053407;28;20041;-26
2022/07/26 10:37:01;;;;;;;7.63;1.20;;;19.60;1.00;;;;;;5052076;28;20498;-26
2022/07/26 10:39:26;;;;;;;4.55;1.17;;;19.70;99.90;;;;;;5052491;28;20060;-27
2022/07/26 10:42:04;;;;;;;8.60;1.33;;;19.60;1.00;;;;;;5053289;28;20044;-26
2022/07/26 10:44:38;;;;;;;5.90;1.00;;;19.30;1.00;;;;;;5044790;28;20049;-28
2022/07/26 10:47:08;;;;;;;7.53;2.33;;;19.40;99.90;;;;;;5049006;28;20499;-26
2022/07/26 10:49:35;;;;;;;6.05;1.00;;;19.30;99.90;;;;;;5052967;28;20079;-26
2022/07/26 10:52:26;;;;;;;4.32;1.08;;;19.60;1.00;;;;;;5052686;28;20053;-28
2022/07/26 10:55:02;;;;;;;6.50;1.10;;;20.10;99.90;;;;;;5057187;28;20053;-26
2022/07/26 10:57:40;;;;;;;4.05;0.90;;;20.20;99.90;;;;;;5055286;28;20515;-26
2022/07/26 11:00:14;;;;;;;6.90;1.15;;;20.20;99.90;;;;;;5052818;28;20802;-26
2022/07/26 11:02:42;;;;;;;5.13;0.80;;;20.10;99.90;;;;;;5056128;28;20131;-26
2022/07/26 11:05:16;;;;;;;5.10;1.48;;;20.60;99.90;;;;;;5056835;28;20048;-26
2022/07/26 11:08:09;;;;;;;5.72;1.02;;;21.30;54.40;;;;;;5056553;28;20454;-26
2022/07/26 11:10:41;;;;;;;5.63;1.02;;;21.50;99.90;;;;;;5056259;28;20053;-26
2022/07/26 11:13:22;;;;;;;7.00;0.80;;;21.70;1.00;;;;;;5057349;28;20102;-26
2022/07/26 11:16:07;;;;;;;5.72;0.90;;;21.70;1.00;;;;;;5055223;28;20045;-26
2022/07/26 11:18:35;;;;;;;5.18;0.80;;;20.80;1.00;;;;;;5039444;28;20052;-27
2022/07/26 11:21:11;;;;;;;5.10;0.98;;;20.10;1.00;;;;;;5055671;28;20155;-26
2022/07/26 11:23:40;;;;;;;8.35;1.13;;;19.30;1.00;;;;;;5056520;28;20098;-26
2022/07/26 11:26:10;;;;;;;9.45;1.20;;;19.30;99.90;;;;;;5055240;28;20052;-26
2022/07/26 11:28:56;;;;;;;4.38;0.80;;;19.50;99.90;;;;;;5056437;28;20146;-26
2022/07/26 11:31:32;;;;;;;9.30;1.20;;;19.40;99.90;;;;;;5055369;28;20454;-27
2022/07/26 11:34:02;;;;;;;4.38;0.70;;;19.50;99.90;;;;;;5058430;28;20068;-26
2022/07/26 11:36:50;;;;;;;6.80;1.33;;;19.40;99.90;;;;;;5056036;28;20080;-26
2022/07/26 11:39:20;;;;;;;8.07;1.00;;;19.40;99.90;;;;;;5029979;28;20519;-26
2022/07/26 11:41:46;;;;;;;5.38;0.90;;;19.30;99.90;;;;;;5036808;28;20056;-26
2022/07/26 11:44:20;;;;;;;4.93;0.73;;;19.20;99.90;;;;;;5036179;28;20045;-26
2022/07/26 11:46:47;;;;;;;4.35;1.17;;;19.20;99.90;;;;;;5036169;28;20115;-26
2022/07/26 11:49:14;;;;;;;3.47;0.68;;;19.40;99.90;;;;;;5040172;28;20048;-26
2022/07/26 11:51:48;;;;;;;6.00;0.98;;;19.70;99.90;;;;;;5055356;28;20041;-26
2022/07/26 11:54:14;;;;;;;5.05;0.80;;;20.10;98.00;;;;;;5056307;28;20041;-27
2022/07/26 11:56:52;;;;;;;4.47;0.80;;;19.80;1.00;;;;;;5054976;28;20056;-26
2022/07/26 11:59:18;;;;;;;4.68;1.15;;;19.90;1.00;;;;;;5055461;28;20049;-26
2022/07/26 12:01:45;;;;;;;3.05;0.77;;;19.90;9.80;;;;;;5055762;28;20552;-26
2022/07/26 12:04:23;;;;;;;3.83;0.75;;;19.90;1.00;;;;;;5055349;28;20052;-26
2022/07/26 12:06:51;;;;;;;6.63;0.75;;;20.00;12.60;;;;;;5055428;28;20148;-26
2022/07/26 12:09:37;;;;;;;6.93;1.00;;;19.80;99.90;;;;;;5054462;28;20048;-25
2022/07/26 12:12:06;;;;;;;5.97;0.80;;;19.90;99.90;;;;;;5055038;28;20098;-26
2022/07/26 12:14:37;;;;;;;7.72;1.10;;;19.70;96.30;;;;;;5055584;28;20055;-26
2022/07/26 12:17:16;;;;;;;7.05;1.00;;;19.30;99.90;;;;;;5055541;28;20045;-26
2022/07/26 12:19:43;;;;;;;4.13;0.80;;;19.30;99.90;;;;;;5055807;28;20045;-26
2022/07/26 12:22:12;;;;;;;5.07;0.95;;;19.10;99.90;;;;;;5054394;28;20041;-25
2022/07/26 12:24:39;;;;;;;7.07;1.40;;;19.10;99.90;;;;;;5061645;28;20109;-26
2022/07/26 12:27:26;;;;;;;7.90;1.10;;;19.20;1.00;;;;;;5058215;28;20047;-26
2022/07/26 12:29:59;;;;;;;7.10;1.30;;;19.10;1.00;;;;;;5053883;28;20057;-26
2022/07/26 12:32:34;;;;;;;8.00;1.77;;;19.20;1.00;;;;;;5055341;28;20052;-26
2022/07/26 12:35:03;;;;;;;6.82;1.05;;;19.60;1.00;;;;;;5055205;28;20055;-26
2022/07/26 12:37:31;;;;;;;6.70;1.30;;;20.00;99.90;;;;;;5054102;28;20491;-26
2022/07/26 12:40:07;;;;;;;6.85;1.38;;;20.70;99.90;;;;;;5054079;28;20512;-25
2022/07/26 12:42:41;;;;;;;7.20;1.08;;;20.50;99.90;;;;;;5055692;28;20049;-26
2022/07/26 12:45:14;;;;;;;8.02;1.05;;;20.60;99.90;;;;;;5055076;28;20124;-26
2022/07/26 12:47:42;;;;;;;8.13;1.10;;;20.20;99.90;;;;;;5055014;28;20044;-26
2022/07/26 12:50:12;;;;;;;8.00;1.15;;;19.90;99.90;;;;;;5053916;28;20048;-26
2022/07/26 12:52:38;;;;;;;12.13;2.30;;;19.50;99.90;;;;;;5054857;28;20056;-26
2022/07/26 12:55:06;;;;;;;6.25;0.93;;;19.80;1.00;;;;;;5053885;28;20052;-26